createdAt,value
2019-04-07T00:02:38.564Z,6.00
2019-04-07T00:05:28.153Z,5.90
2019-04-07T00:08:08.698Z,5.80
2019-04-07T00:10:49.593Z,5.80
2019-04-07T00:13:30.958Z,5.60
2019-04-07T00:22:22.752Z,5.80
2019-04-07T00:25:04.031Z,5.50
2019-04-07T00:27:44.365Z,5.40
2019-04-07T00:30:25.206Z,5.30
2019-04-07T00:33:06.358Z,5.10
2019-04-07T00:35:47.518Z,5.00
2019-04-07T00:38:28.362Z,4.90
2019-04-07T00:41:09.638Z,4.90
2019-04-07T00:43:50.605Z,4.80
2019-04-07T00:46:31.035Z,4.70
2019-04-07T00:49:11.748Z,4.70
2019-04-07T00:51:54.035Z,4.60
2019-04-07T00:54:34.623Z,4.50
2019-04-07T00:57:15.390Z,4.50
2019-04-07T00:59:56.502Z,4.40
2019-04-07T01:02:37.606Z,4.40
2019-04-07T01:05:18.384Z,4.30
2019-04-07T01:07:59.196Z,4.30
2019-04-07T01:10:39.710Z,4.30
2019-04-07T01:13:20.818Z,4.30
2019-04-07T01:16:02.330Z,4.30
2019-04-07T01:18:43.751Z,4.40
2019-04-07T01:21:24.914Z,4.40
2019-04-07T01:24:05.882Z,4.40
2019-04-07T01:26:47.132Z,4.30
2019-04-07T01:29:28.071Z,4.30
2019-04-07T01:32:08.867Z,4.20
2019-04-07T01:34:49.622Z,4.20
2019-04-07T01:37:30.714Z,4.10
2019-04-07T01:40:11.878Z,4.00
2019-04-07T01:46:24.225Z,4.00
2019-04-07T01:49:11.159Z,3.90
2019-04-07T01:52:13.009Z,3.90
2019-04-07T01:55:12.942Z,3.90
2019-04-07T01:58:05.463Z,3.80
2019-04-07T02:01:05.433Z,3.70
2019-04-07T02:04:09.353Z,3.60
2019-04-07T02:07:13.870Z,3.50
2019-04-07T02:10:13.727Z,3.50
2019-04-07T02:13:21.463Z,3.40
2019-04-07T02:16:21.153Z,3.40
2019-04-07T02:19:28.242Z,3.40
2019-04-07T02:22:24.261Z,3.40
2019-04-07T02:25:31.704Z,3.30
2019-04-07T02:28:38.954Z,3.30
2019-04-07T02:31:46.257Z,3.30
2019-04-07T02:34:49.667Z,3.30
2019-04-07T02:37:44.011Z,3.20
2019-04-07T02:40:51.806Z,3.30
2019-04-07T02:43:59.699Z,3.20
2019-04-07T02:47:06.951Z,3.00
2019-04-07T02:50:01.644Z,3.00
2019-04-07T02:53:11.065Z,2.90
2019-04-07T02:56:18.290Z,2.90
2019-04-07T02:59:25.695Z,2.80
2019-04-07T03:02:33.456Z,2.70
2019-04-07T03:05:40.771Z,2.80
2019-04-07T03:08:40.634Z,2.80
2019-04-07T03:11:27.766Z,2.70
2019-04-07T03:14:32.167Z,2.80
2019-04-07T03:17:31.913Z,2.80
2019-04-07T03:20:34.499Z,2.70
2019-04-07T03:23:35.022Z,2.70
2019-04-07T03:26:37.772Z,2.70
2019-04-07T03:29:38.402Z,2.70
2019-04-07T03:32:40.507Z,2.60
2019-04-07T03:38:39.385Z,2.40
2019-04-07T03:41:45.817Z,2.30
2019-04-07T03:44:41.025Z,2.20
2019-04-07T03:47:42.379Z,2.20
2019-04-07T03:50:42.993Z,2.00
2019-04-07T03:53:37.162Z,2.00
2019-04-07T03:56:37.404Z,2.00
2019-04-07T03:59:38.375Z,1.90
2019-04-07T04:02:41.443Z,1.90
2019-04-07T04:05:29.658Z,1.90
2019-04-07T04:08:18.543Z,1.70
2019-04-07T04:11:09.608Z,1.70
2019-04-07T04:14:16.681Z,1.80
2019-04-07T04:17:04.795Z,1.70
2019-04-07T04:19:52.899Z,1.60
2019-04-07T04:22:40.935Z,1.50
2019-04-07T04:25:30.249Z,1.50
2019-04-07T04:28:19.191Z,1.50
2019-04-07T04:31:08.578Z,1.40
2019-04-07T04:33:56.628Z,1.40
2019-04-07T04:36:44.797Z,1.40
2019-04-07T04:39:33.497Z,1.40
2019-04-07T04:42:22.951Z,1.30
2019-04-07T04:45:11.139Z,1.50
2019-04-07T04:48:00.106Z,1.40
2019-04-07T04:50:49.172Z,1.40
2019-04-07T04:53:38.682Z,1.40
2019-04-07T04:56:26.715Z,1.50
2019-04-07T04:59:14.947Z,1.50
2019-04-07T05:02:03.110Z,1.50
2019-04-07T05:04:51.627Z,1.50
2019-04-07T05:07:41.945Z,1.50
2019-04-07T05:10:16.981Z,1.50
2019-04-07T05:12:57.462Z,1.60
2019-04-07T05:15:38.956Z,1.70
2019-04-07T05:18:18.727Z,1.80
2019-04-07T05:21:06.790Z,1.90
2019-04-07T05:23:55.058Z,1.90
2019-04-07T05:26:43.153Z,2.10
2019-04-07T05:29:31.445Z,3.10
2019-04-07T05:32:20.055Z,2.30
2019-04-07T05:35:09.336Z,2.40
2019-04-07T05:38:02.824Z,2.50
2019-04-07T05:40:47.526Z,2.70
2019-04-07T05:43:37.237Z,2.80
2019-04-07T05:46:27.997Z,3.00
2019-04-07T05:49:16.237Z,3.50
2019-04-07T05:52:05.833Z,4.10
2019-04-07T05:54:56.159Z,4.70
2019-04-07T05:57:45.364Z,5.50
2019-04-07T06:00:35.083Z,6.30
2019-04-07T06:03:24.396Z,6.90
2019-04-07T06:06:04.046Z,6.90
2019-04-07T06:08:52.074Z,7.20
2019-04-07T06:11:40.442Z,7.90
2019-04-07T06:14:28.778Z,8.50
2019-04-07T06:17:16.809Z,9.30
2019-04-07T06:20:05.333Z,9.90
2019-04-07T06:22:54.465Z,10.60
2019-04-07T06:25:43.999Z,10.80
2019-04-07T06:28:33.773Z,11.30
2019-04-07T06:31:25.865Z,11.60
2019-04-07T06:34:12.738Z,11.50
2019-04-07T06:37:00.969Z,11.70
2019-04-07T06:39:50.849Z,12.50
2019-04-07T06:42:38.807Z,12.80
2019-04-07T06:48:27.642Z,13.50
2019-04-07T06:51:29.284Z,13.70
2019-04-07T06:54:28.813Z,15.20
2019-04-07T06:57:37.526Z,15.90
2019-04-07T07:03:49.734Z,17.20
2019-04-07T07:06:50.251Z,17.30
2019-04-07T07:09:50.221Z,17.10
2019-04-07T07:15:46.005Z,18.40
2019-04-07T07:18:55.751Z,18.40
2019-04-07T07:22:06.492Z,18.80
2019-04-07T07:24:55.818Z,19.20
2019-04-07T07:27:43.139Z,19.30
2019-04-07T07:30:31.555Z,19.60
2019-04-07T07:33:21.390Z,19.30
2019-04-07T07:36:10.781Z,19.40
2019-04-07T07:39:02.207Z,19.90
2019-04-07T07:41:51.671Z,18.00
2019-04-07T07:44:39.821Z,18.90
2019-04-07T07:47:29.588Z,19.50
2019-04-07T07:50:19.089Z,18.10
2019-04-07T07:52:53.135Z,17.70
2019-04-07T07:55:40.122Z,18.00
2019-04-07T07:58:32.613Z,16.50
2019-04-07T08:01:19.269Z,16.00
2019-04-07T08:04:07.350Z,16.30
2019-04-07T08:06:48.975Z,16.70
2019-04-07T08:09:30.640Z,17.00
2019-04-07T08:12:12.659Z,18.00
2019-04-07T08:14:57.158Z,18.90
2019-04-07T08:17:35.635Z,19.20
2019-04-07T08:20:24.219Z,19.30
2019-04-07T08:23:14.270Z,20.40
2019-04-07T08:26:03.918Z,20.60
2019-04-07T08:28:53.456Z,21.30
2019-04-07T08:31:41.510Z,21.70
2019-04-07T08:34:32.201Z,21.60
2019-04-07T08:37:19.980Z,22.40
2019-04-07T08:40:09.648Z,20.90
2019-04-07T08:42:58.260Z,20.90
2019-04-07T08:45:48.103Z,21.80
2019-04-07T08:48:36.166Z,21.70
2019-04-07T08:51:24.939Z,20.50
2019-04-07T08:54:16.935Z,20.80
2019-04-07T08:57:04.542Z,22.40
2019-04-07T08:59:53.854Z,23.70
2019-04-07T09:02:42.685Z,22.40
2019-04-07T09:05:31.770Z,22.90
2019-04-07T09:08:12.834Z,22.70
2019-04-07T09:10:58.221Z,22.60
2019-04-07T09:13:39.530Z,23.90
2019-04-07T09:16:44.704Z,23.10
2019-04-07T09:19:44.329Z,23.70
2019-04-07T09:22:34.755Z,23.10
2019-04-07T09:25:39.988Z,23.10
2019-04-07T09:28:40.171Z,23.90
2019-04-07T09:31:33.977Z,23.40
2019-04-07T09:34:34.488Z,22.90
2019-04-07T09:37:28.478Z,23.30
2019-04-07T09:40:21.923Z,24.60
2019-04-07T09:43:22.535Z,24.60
2019-04-07T09:46:26.418Z,23.00
2019-04-07T09:49:27.339Z,21.60
2019-04-07T09:52:18.205Z,22.90
2019-04-07T09:55:24.347Z,22.80
2019-04-07T09:58:15.937Z,22.90
2019-04-07T10:01:09.773Z,22.40
2019-04-07T10:04:09.162Z,23.30
2019-04-07T10:07:15.028Z,21.60
2019-04-07T10:10:14.972Z,21.80
2019-04-07T10:13:16.185Z,23.40
2019-04-07T10:16:07.675Z,23.80
2019-04-07T10:19:06.526Z,23.60
2019-04-07T10:22:13.938Z,21.30
2019-04-07T10:25:21.120Z,20.20
2019-04-07T10:28:28.729Z,21.80
2019-04-07T10:31:35.888Z,22.80
2019-04-07T10:34:43.655Z,24.50
2019-04-07T10:37:51.020Z,26.40
2019-04-07T10:40:44.323Z,27.20
2019-04-07T10:43:51.439Z,27.10
2019-04-07T10:46:59.274Z,27.80
2019-04-07T10:50:07.913Z,26.70
2019-04-07T10:53:16.001Z,25.50
2019-04-07T10:56:23.254Z,25.60
2019-04-07T10:59:30.843Z,26.50
2019-04-07T11:02:38.128Z,26.50
2019-04-07T11:05:45.298Z,26.60
2019-04-07T11:08:52.412Z,27.70
2019-04-07T11:12:00.043Z,28.40
2019-04-07T11:15:09.123Z,27.60
2019-04-07T11:18:16.533Z,26.30
2019-04-07T11:21:17.735Z,25.10
2019-04-07T11:24:26.463Z,26.20
2019-04-07T11:27:33.609Z,27.90
2019-04-07T11:30:40.939Z,28.30
2019-04-07T11:33:48.169Z,28.50
2019-04-07T11:36:56.114Z,27.30
2019-04-07T11:40:04.708Z,26.30
2019-04-07T11:43:03.389Z,26.00
2019-04-07T11:46:10.902Z,23.70
2019-04-07T11:49:18.239Z,24.60
2019-04-07T11:52:25.398Z,26.00
2019-04-07T11:55:33.414Z,28.10
2019-04-07T11:58:40.887Z,27.70
2019-04-07T12:01:36.626Z,28.30
2019-04-07T12:04:43.718Z,28.90
2019-04-07T12:07:53.960Z,29.50
2019-04-07T12:10:58.528Z,29.80
2019-04-07T12:13:53.163Z,28.80
2019-04-07T12:16:45.953Z,29.10
2019-04-07T12:19:39.809Z,27.80
2019-04-07T12:22:36.857Z,26.90
2019-04-07T12:25:35.202Z,25.60
2019-04-07T12:28:42.281Z,25.90
2019-04-07T12:31:37.959Z,26.20
2019-04-07T12:34:47.739Z,27.10
2019-04-07T12:37:54.215Z,27.10
2019-04-07T12:41:13.394Z,27.80
2019-04-07T12:44:10.436Z,28.40
2019-04-07T12:47:18.187Z,29.00
2019-04-07T12:50:26.295Z,29.20
2019-04-07T12:53:34.412Z,30.30
2019-04-07T12:56:37.963Z,30.20
2019-04-07T12:59:50.036Z,28.50
2019-04-07T13:02:55.422Z,28.20
2019-04-07T13:06:06.390Z,25.10
2019-04-07T13:09:12.442Z,24.50
2019-04-07T13:12:09.346Z,24.40
2019-04-07T13:15:16.472Z,23.80
2019-04-07T13:18:24.212Z,23.40
2019-04-07T13:21:26.743Z,24.00
2019-04-07T13:24:38.847Z,23.40
2019-04-07T13:27:44.072Z,22.80
2019-04-07T13:30:52.005Z,22.20
2019-04-07T13:33:47.163Z,22.00
2019-04-07T13:36:54.326Z,22.20
2019-04-07T13:40:01.663Z,22.30
2019-04-07T13:43:08.758Z,21.50
2019-04-07T13:46:21.717Z,21.80
2019-04-07T13:49:16.139Z,22.80
2019-04-07T13:52:24.754Z,23.30
2019-04-07T13:55:32.418Z,22.90
2019-04-07T13:58:40.047Z,21.90
2019-04-07T14:01:50.519Z,21.40
2019-04-07T14:04:42.326Z,20.60
2019-04-07T14:07:43.930Z,21.00
2019-04-07T14:10:47.145Z,20.80
2019-04-07T14:13:48.066Z,20.90
2019-04-07T14:16:48.601Z,20.70
2019-04-07T14:19:43.401Z,20.80
2019-04-07T14:22:37.446Z,20.60
2019-04-07T14:25:41.895Z,20.60
2019-04-07T14:28:43.975Z,20.60
2019-04-07T14:31:45.462Z,20.90
2019-04-07T14:37:48.402Z,20.40
2019-04-07T14:40:35.430Z,20.10
2019-04-07T14:43:36.329Z,19.70
2019-04-07T14:46:30.790Z,19.60
2019-04-07T14:49:37.944Z,19.50
2019-04-07T14:52:37.331Z,19.40
2019-04-07T14:55:36.835Z,19.50
2019-04-07T14:58:36.925Z,19.60
2019-04-07T15:01:23.672Z,19.70
2019-04-07T15:04:05.178Z,19.40
2019-04-07T15:06:47.662Z,19.60
2019-04-07T15:09:33.901Z,19.30
2019-04-07T15:12:34.771Z,19.00
2019-04-07T15:15:17.085Z,19.00
2019-04-07T15:17:58.708Z,18.50
2019-04-07T15:20:42.700Z,18.30
2019-04-07T15:23:23.013Z,18.30
2019-04-07T15:26:03.982Z,18.20
2019-04-07T15:28:45.643Z,18.00
2019-04-07T15:31:26.803Z,18.10
2019-04-07T15:34:10.653Z,18.00
2019-04-07T15:36:51.063Z,17.80
2019-04-07T15:39:32.432Z,17.60
2019-04-07T15:42:19.789Z,17.70
2019-04-07T15:44:57.245Z,17.70
2019-04-07T15:47:38.070Z,17.40
2019-04-07T15:50:18.634Z,17.50
2019-04-07T15:52:59.579Z,17.30
2019-04-07T15:55:47.650Z,17.40
2019-04-07T15:58:26.302Z,17.30
2019-04-07T16:01:08.832Z,17.20
2019-04-07T16:03:50.554Z,17.10
2019-04-07T16:06:30.054Z,16.90
2019-04-07T16:09:29.099Z,16.90
2019-04-07T16:11:57.413Z,16.80
2019-04-07T16:14:37.438Z,16.80
2019-04-07T16:17:19.022Z,16.80
2019-04-07T16:19:59.510Z,16.70
2019-04-07T16:22:38.599Z,16.70
2019-04-07T16:25:28.216Z,16.60
2019-04-07T16:28:16.424Z,16.50
2019-04-07T16:31:06.437Z,16.50
2019-04-07T16:33:54.293Z,16.30
2019-04-07T16:36:43.277Z,16.40
2019-04-07T16:39:34.629Z,16.20
2019-04-07T16:42:22.545Z,16.30
2019-04-07T16:45:13.853Z,16.20
2019-04-07T16:48:00.538Z,16.00
2019-04-07T16:50:53.275Z,16.00
2019-04-07T16:53:42.781Z,15.90
2019-04-07T16:56:30.121Z,15.70
2019-04-07T16:59:19.311Z,15.60
2019-04-07T17:02:09.128Z,15.40
2019-04-07T17:04:58.145Z,15.30
2019-04-07T17:07:38.217Z,15.20
2019-04-07T17:10:32.334Z,15.00
2019-04-07T17:13:20.542Z,14.90
2019-04-07T17:16:10.125Z,14.90
2019-04-07T17:18:56.552Z,14.70
2019-04-07T17:21:45.899Z,14.70
2019-04-07T17:24:34.532Z,14.50
2019-04-07T17:27:24.057Z,14.40
2019-04-07T17:30:35.403Z,14.20
2019-04-07T17:33:24.489Z,14.20
2019-04-07T17:36:16.188Z,14.00
2019-04-07T17:42:12.545Z,13.80
2019-04-07T17:45:21.258Z,13.70
2019-04-07T17:48:37.407Z,13.50
2019-04-07T17:51:38.267Z,13.40
2019-04-07T17:54:46.407Z,13.20
2019-04-07T17:57:40.793Z,13.00
2019-04-07T18:00:50.701Z,12.90
2019-04-07T18:03:52.137Z,12.80
2019-04-07T18:06:38.659Z,12.70
2019-04-07T18:09:39.480Z,12.50
2019-04-07T18:12:31.808Z,12.30
2019-04-07T18:15:32.104Z,12.10
2019-04-07T18:18:31.603Z,12.10
2019-04-07T18:21:32.082Z,12.00
2019-04-07T18:24:21.098Z,11.90
2019-04-07T18:27:24.098Z,11.80
2019-04-07T18:30:14.507Z,11.70
2019-04-07T18:33:21.792Z,11.60
2019-04-07T18:36:29.814Z,11.50
2019-04-07T18:39:36.986Z,11.40
2019-04-07T18:42:44.456Z,11.40
2019-04-07T18:45:53.536Z,11.30
2019-04-07T18:49:03.283Z,11.10
2019-04-07T18:52:09.959Z,11.10
2019-04-07T18:55:18.077Z,11.00
2019-04-07T18:58:25.668Z,11.00
2019-04-07T19:01:34.167Z,10.90
2019-04-07T19:04:42.135Z,10.90
2019-04-07T19:07:41.877Z,10.80
2019-04-07T19:10:42.505Z,10.80
2019-04-07T19:13:31.206Z,10.80
2019-04-07T19:16:31.993Z,10.80
2019-04-07T19:19:32.258Z,10.80
2019-04-07T19:22:32.447Z,10.80
2019-04-07T19:25:20.644Z,10.80
2019-04-07T19:28:19.049Z,10.80
2019-04-07T19:31:26.156Z,10.80
2019-04-07T19:34:33.258Z,10.80
2019-04-07T19:37:40.426Z,10.80
2019-04-07T19:40:48.282Z,10.80
2019-04-07T19:43:45.828Z,10.80
2019-04-07T19:46:54.500Z,10.70
2019-04-07T19:49:52.953Z,10.60
2019-04-07T19:53:00.961Z,10.60
2019-04-07T19:56:10.132Z,10.50
2019-04-07T19:59:17.470Z,10.40
2019-04-07T20:02:25.356Z,10.30
2019-04-07T20:05:32.569Z,10.20
2019-04-07T20:08:34.543Z,10.00
2019-04-07T20:11:35.747Z,9.90
2019-04-07T20:14:45.956Z,9.90
2019-04-07T20:17:34.353Z,9.80
2019-04-07T20:20:25.793Z,9.70
2019-04-07T20:23:29.598Z,9.60
2019-04-07T20:26:30.867Z,9.50
2019-04-07T20:29:33.859Z,9.30
2019-04-07T20:32:28.253Z,9.20
2019-04-07T20:35:18.698Z,9.00
2019-04-07T20:38:10.506Z,8.90
2019-04-07T20:41:14.248Z,8.80
2019-04-07T20:44:18.864Z,8.70
2019-04-07T20:47:20.866Z,8.60
2019-04-07T20:50:18.470Z,8.60
2019-04-07T20:53:23.212Z,8.50
2019-04-07T20:56:19.418Z,8.40
2019-04-07T20:59:20.233Z,8.30
2019-04-07T21:02:23.191Z,8.20
2019-04-07T21:05:02.764Z,8.10
2019-04-07T21:08:02.979Z,8.00
2019-04-07T21:10:56.038Z,7.90
2019-04-07T21:13:57.584Z,7.90
2019-04-07T21:16:59.316Z,7.70
2019-04-07T21:20:00.051Z,7.60
2019-04-07T21:22:46.551Z,7.50
2019-04-07T21:25:46.884Z,7.40
2019-04-07T21:28:37.758Z,7.40
2019-04-07T21:34:39.277Z,7.20
2019-04-07T21:37:40.802Z,7.10
2019-04-07T21:40:43.671Z,7.00
2019-04-07T21:43:36.084Z,6.90
2019-04-07T21:46:40.933Z,6.70
2019-04-07T21:49:37.027Z,6.60
2019-04-07T21:52:35.854Z,6.50
2019-04-07T21:55:29.130Z,6.40
2019-04-07T21:58:29.627Z,6.40
2019-04-07T22:01:30.409Z,6.40
2019-04-07T22:04:30.255Z,6.30
2019-04-07T22:07:27.649Z,6.30
2019-04-07T22:10:09.382Z,6.30
2019-04-07T22:12:49.806Z,6.20
2019-04-07T22:15:41.429Z,6.20
2019-04-07T22:18:13.135Z,6.10
2019-04-07T22:20:55.548Z,6.00
2019-04-07T22:23:36.834Z,5.90
2019-04-07T22:26:18.999Z,5.80
2019-04-07T22:29:02.861Z,5.80
2019-04-07T22:31:49.319Z,5.70
2019-04-07T22:34:32.680Z,5.70
2019-04-07T22:37:15.558Z,5.60
2019-04-07T22:39:57.197Z,5.60
2019-04-07T22:42:39.238Z,5.50
2019-04-07T22:45:25.138Z,5.40
2019-04-07T22:48:03.494Z,5.40
2019-04-07T22:50:44.209Z,5.30
2019-04-07T22:53:28.338Z,5.30
2019-04-07T22:56:09.015Z,5.30
2019-04-07T23:05:03.830Z,5.40
2019-04-07T23:07:44.541Z,5.10
2019-04-07T23:10:25.387Z,4.90
2019-04-07T23:13:06.058Z,4.90
2019-04-07T23:15:47.376Z,4.90
2019-04-07T23:18:29.726Z,4.80
2019-04-07T23:21:11.657Z,4.80
2019-04-07T23:23:53.521Z,4.80
2019-04-07T23:26:34.343Z,4.70
2019-04-07T23:29:14.816Z,4.70
2019-04-07T23:31:55.654Z,4.60
2019-04-07T23:34:36.330Z,4.60
2019-04-07T23:37:17.423Z,4.60
2019-04-07T23:39:58.095Z,4.50
2019-04-07T23:42:38.454Z,4.50
2019-04-07T23:45:19.741Z,4.50
2019-04-07T23:48:00.922Z,4.40
2019-04-07T23:50:42.331Z,4.40
2019-04-07T23:53:23.539Z,4.30
2019-04-07T23:56:04.162Z,4.30
2019-04-07T23:58:45.557Z,4.30
